sensor_id;sensor_type;location;lat;lon;timestamp;P1;durP1;ratioP1;P2;durP2;ratioP2
7051;SDS011;3567;52.444;13.556;2023-04-25T00:01:02;2.88;;;2.08;;
7051;SDS011;3567;52.444;13.556;2023-04-25T00:03:29;4.97;;;2.00;;
7051;SDS011;3567;52.444;13.556;2023-04-25T00:05:55;3.70;;;2.15;;
7051;SDS011;3567;52.444;13.556;2023-04-25T00:08:21;5.25;;;1.75;;
7051;SDS011;3567;52.444;13.556;2023-04-25T00:10:47;3.45;;;1.83;;
7051;SDS011;3567;52.444;13.556;2023-04-25T00:13:14;2.45;;;1.50;;
7051;SDS011;3567;52.444;13.556;2023-04-25T00:15:39;2.58;;;1.80;;
7051;SDS011;3567;52.444;13.556;2023-04-25T00:18:06;4.28;;;1.95;;
7051;SDS011;3567;52.444;13.556;2023-04-25T00:20:32;4.53;;;1.75;;
7051;SDS011;3567;52.444;13.556;2023-04-25T00:22:57;2.58;;;1.85;;
7051;SDS011;3567;52.444;13.556;2023-04-25T00:25:23;4.10;;;2.60;;
7051;SDS011;3567;52.444;13.556;2023-04-25T00:27:48;2.15;;;1.73;;
7051;SDS011;3567;52.444;13.556;2023-04-25T00:30:13;2.72;;;1.30;;
7051;SDS011;3567;52.444;13.556;2023-04-25T00:32:39;4.95;;;1.48;;
7051;SDS011;3567;52.444;13.556;2023-04-25T00:35:05;2.65;;;1.30;;
7051;SDS011;3567;52.444;13.556;2023-04-25T00:37:31;7.55;;;1.45;;
7051;SDS011;3567;52.444;13.556;2023-04-25T00:39:57;3.22;;;1.38;;
7051;SDS011;3567;52.444;13.556;2023-04-25T00:42:23;3.88;;;1.38;;
7051;SDS011;3567;52.444;13.556;2023-04-25T00:44:51;3.72;;;1.48;;
7051;SDS011;3567;52.444;13.556;2023-04-25T00:47:17;3.38;;;1.48;;
7051;SDS011;3567;52.444;13.556;2023-04-25T00:49:43;3.03;;;1.75;;
7051;SDS011;3567;52.444;13.556;2023-04-25T00:52:08;3.47;;;2.03;;
7051;SDS011;3567;52.444;13.556;2023-04-25T00:54:35;2.33;;;1.48;;
7051;SDS011;3567;52.444;13.556;2023-04-25T00:57:00;4.47;;;1.50;;
7051;SDS011;3567;52.444;13.556;2023-04-25T00:59:26;5.22;;;1.80;;
7051;SDS011;3567;52.444;13.556;2023-04-25T01:01:53;6.95;;;1.95;;
7051;SDS011;3567;52.444;13.556;2023-04-25T01:04:18;3.92;;;1.67;;
7051;SDS011;3567;52.444;13.556;2023-04-25T01:06:43;5.00;;;1.40;;
7051;SDS011;3567;52.444;13.556;2023-04-25T01:09:09;3.15;;;1.63;;
7051;SDS011;3567;52.444;13.556;2023-04-25T01:11:35;3.90;;;1.90;;
7051;SDS011;3567;52.444;13.556;2023-04-25T01:14:00;3.60;;;1.95;;
7051;SDS011;3567;52.444;13.556;2023-04-25T01:16:27;6.53;;;1.90;;
7051;SDS011;3567;52.444;13.556;2023-04-25T01:18:53;5.65;;;2.17;;
7051;SDS011;3567;52.444;13.556;2023-04-25T01:21:19;6.28;;;2.13;;
7051;SDS011;3567;52.444;13.556;2023-04-25T01:23:44;2.85;;;1.85;;
7051;SDS011;3567;52.444;13.556;2023-04-25T01:26:10;6.85;;;2.85;;
7051;SDS011;3567;52.444;13.556;2023-04-25T01:28:37;5.25;;;2.10;;
7051;SDS011;3567;52.444;13.556;2023-04-25T01:31:06;3.83;;;2.17;;
7051;SDS011;3567;52.444;13.556;2023-04-25T01:33:32;4.75;;;1.70;;
7051;SDS011;3567;52.444;13.556;2023-04-25T01:35:57;3.13;;;2.55;;
7051;SDS011;3567;52.444;13.556;2023-04-25T01:38:23;6.15;;;2.13;;
7051;SDS011;3567;52.444;13.556;2023-04-25T01:40:49;4.22;;;1.70;;
7051;SDS011;3567;52.444;13.556;2023-04-25T01:43:16;6.20;;;2.08;;
7051;SDS011;3567;52.444;13.556;2023-04-25T01:45:42;7.88;;;2.13;;
7051;SDS011;3567;52.444;13.556;2023-04-25T01:48:11;5.47;;;1.73;;
7051;SDS011;3567;52.444;13.556;2023-04-25T01:50:38;9.85;;;2.85;;
7051;SDS011;3567;52.444;13.556;2023-04-25T01:53:04;5.85;;;2.25;;
7051;SDS011;3567;52.444;13.556;2023-04-25T01:55:30;5.13;;;2.17;;
7051;SDS011;3567;52.444;13.556;2023-04-25T01:57:56;4.63;;;1.95;;
7051;SDS011;3567;52.444;13.556;2023-04-25T02:00:21;5.38;;;2.05;;
7051;SDS011;3567;52.444;13.556;2023-04-25T02:02:47;6.05;;;2.20;;
7051;SDS011;3567;52.444;13.556;2023-04-25T02:05:13;4.47;;;1.80;;
7051;SDS011;3567;52.444;13.556;2023-04-25T02:07:38;4.65;;;1.98;;
7051;SDS011;3567;52.444;13.556;2023-04-25T02:10:04;5.85;;;2.05;;
7051;SDS011;3567;52.444;13.556;2023-04-25T02:12:30;9.63;;;2.72;;
7051;SDS011;3567;52.444;13.556;2023-04-25T02:14:56;5.85;;;2.80;;
7051;SDS011;3567;52.444;13.556;2023-04-25T02:17:21;4.65;;;2.40;;
7051;SDS011;3567;52.444;13.556;2023-04-25T02:19:46;3.83;;;2.35;;
7051;SDS011;3567;52.444;13.556;2023-04-25T02:22:12;5.15;;;2.13;;
7051;SDS011;3567;52.444;13.556;2023-04-25T02:24:38;5.28;;;1.90;;
7051;SDS011;3567;52.444;13.556;2023-04-25T02:27:03;5.15;;;2.17;;
7051;SDS011;3567;52.444;13.556;2023-04-25T02:29:29;5.88;;;2.20;;
7051;SDS011;3567;52.444;13.556;2023-04-25T02:31:54;2.92;;;1.83;;
7051;SDS011;3567;52.444;13.556;2023-04-25T02:34:20;6.45;;;2.42;;
7051;SDS011;3567;52.444;13.556;2023-04-25T02:36:46;4.80;;;1.77;;
7051;SDS011;3567;52.444;13.556;2023-04-25T02:39:11;3.88;;;2.20;;
7051;SDS011;3567;52.444;13.556;2023-04-25T02:41:36;4.88;;;2.30;;
7051;SDS011;3567;52.444;13.556;2023-04-25T02:44:02;4.78;;;2.47;;
7051;SDS011;3567;52.444;13.556;2023-04-25T02:46:27;4.90;;;2.67;;
7051;SDS011;3567;52.444;13.556;2023-04-25T02:48:53;3.38;;;2.10;;
7051;SDS011;3567;52.444;13.556;2023-04-25T02:51:18;6.72;;;2.55;;
7051;SDS011;3567;52.444;13.556;2023-04-25T02:53:43;5.85;;;2.70;;
7051;SDS011;3567;52.444;13.556;2023-04-25T02:56:09;11.23;;;2.85;;
7051;SDS011;3567;52.444;13.556;2023-04-25T02:58:34;8.38;;;2.70;;
7051;SDS011;3567;52.444;13.556;2023-04-25T03:00:59;5.85;;;2.80;;
7051;SDS011;3567;52.444;13.556;2023-04-25T03:03:25;3.40;;;2.03;;
7051;SDS011;3567;52.444;13.556;2023-04-25T03:05:51;4.30;;;2.47;;
7051;SDS011;3567;52.444;13.556;2023-04-25T03:08:17;4.97;;;2.10;;
7051;SDS011;3567;52.444;13.556;2023-04-25T03:10:43;4.72;;;2.53;;
7051;SDS011;3567;52.444;13.556;2023-04-25T03:13:09;6.65;;;3.03;;
7051;SDS011;3567;52.444;13.556;2023-04-25T03:15:35;3.83;;;3.05;;
7051;SDS011;3567;52.444;13.556;2023-04-25T03:18:01;3.25;;;2.00;;
7051;SDS011;3567;52.444;13.556;2023-04-25T03:20:26;5.47;;;2.25;;
7051;SDS011;3567;52.444;13.556;2023-04-25T03:22:52;7.65;;;2.60;;
7051;SDS011;3567;52.444;13.556;2023-04-25T03:25:18;4.95;;;2.60;;
7051;SDS011;3567;52.444;13.556;2023-04-25T03:27:43;9.60;;;3.28;;
7051;SDS011;3567;52.444;13.556;2023-04-25T03:30:08;4.97;;;2.53;;
7051;SDS011;3567;52.444;13.556;2023-04-25T03:32:34;8.57;;;2.97;;
7051;SDS011;3567;52.444;13.556;2023-04-25T03:35:00;11.77;;;6.20;;
7051;SDS011;3567;52.444;13.556;2023-04-25T03:37:25;7.65;;;3.47;;
7051;SDS011;3567;52.444;13.556;2023-04-25T03:39:51;5.70;;;3.00;;
7051;SDS011;3567;52.444;13.556;2023-04-25T03:42:16;8.07;;;3.05;;
7051;SDS011;3567;52.444;13.556;2023-04-25T03:44:42;9.63;;;3.25;;
7051;SDS011;3567;52.444;13.556;2023-04-25T03:47:08;4.20;;;2.80;;
7051;SDS011;3567;52.444;13.556;2023-04-25T03:49:33;3.97;;;2.53;;
7051;SDS011;3567;52.444;13.556;2023-04-25T03:52:00;5.95;;;3.10;;
7051;SDS011;3567;52.444;13.556;2023-04-25T03:54:26;5.85;;;2.90;;
7051;SDS011;3567;52.444;13.556;2023-04-25T03:56:51;6.47;;;3.15;;
7051;SDS011;3567;52.444;13.556;2023-04-25T03:59:16;9.50;;;3.03;;
7051;SDS011;3567;52.444;13.556;2023-04-25T04:01:42;5.70;;;3.30;;
7051;SDS011;3567;52.444;13.556;2023-04-25T04:04:07;8.63;;;3.15;;
7051;SDS011;3567;52.444;13.556;2023-04-25T04:06:32;4.90;;;2.83;;
7051;SDS011;3567;52.444;13.556;2023-04-25T04:08:58;6.75;;;3.20;;
7051;SDS011;3567;52.444;13.556;2023-04-25T04:11:24;8.20;;;3.10;;
7051;SDS011;3567;52.444;13.556;2023-04-25T04:13:49;8.27;;;3.67;;
7051;SDS011;3567;52.444;13.556;2023-04-25T04:16:15;5.72;;;3.60;;
7051;SDS011;3567;52.444;13.556;2023-04-25T04:18:40;5.28;;;3.00;;
7051;SDS011;3567;52.444;13.556;2023-04-25T04:21:05;5.80;;;3.20;;
7051;SDS011;3567;52.444;13.556;2023-04-25T04:23:31;8.98;;;3.30;;
7051;SDS011;3567;52.444;13.556;2023-04-25T04:25:56;9.48;;;3.33;;
7051;SDS011;3567;52.444;13.556;2023-04-25T04:28:22;8.15;;;4.20;;
7051;SDS011;3567;52.444;13.556;2023-04-25T04:30:47;7.18;;;3.30;;
7051;SDS011;3567;52.444;13.556;2023-04-25T04:33:13;7.03;;;2.63;;
7051;SDS011;3567;52.444;13.556;2023-04-25T04:35:40;5.88;;;2.65;;
7051;SDS011;3567;52.444;13.556;2023-04-25T04:38:06;7.90;;;3.38;;
7051;SDS011;3567;52.444;13.556;2023-04-25T04:40:32;11.23;;;3.50;;
7051;SDS011;3567;52.444;13.556;2023-04-25T04:42:57;7.45;;;3.22;;
7051;SDS011;3567;52.444;13.556;2023-04-25T04:45:23;7.18;;;3.17;;
7051;SDS011;3567;52.444;13.556;2023-04-25T04:47:48;12.10;;;3.42;;
7051;SDS011;3567;52.444;13.556;2023-04-25T04:50:14;5.55;;;2.92;;
7051;SDS011;3567;52.444;13.556;2023-04-25T04:52:41;6.72;;;3.60;;
7051;SDS011;3567;52.444;13.556;2023-04-25T04:55:06;11.90;;;3.15;;
7051;SDS011;3567;52.444;13.556;2023-04-25T04:57:33;9.00;;;3.20;;
7051;SDS011;3567;52.444;13.556;2023-04-25T04:59:59;8.75;;;3.20;;
7051;SDS011;3567;52.444;13.556;2023-04-25T05:02:26;8.85;;;3.50;;
7051;SDS011;3567;52.444;13.556;2023-04-25T05:04:51;6.03;;;3.50;;
7051;SDS011;3567;52.444;13.556;2023-04-25T05:07:17;10.52;;;3.92;;
7051;SDS011;3567;52.444;13.556;2023-04-25T05:09:43;5.53;;;2.83;;
7051;SDS011;3567;52.444;13.556;2023-04-25T05:12:09;4.18;;;3.45;;
7051;SDS011;3567;52.444;13.556;2023-04-25T05:14:34;4.95;;;3.08;;
7051;SDS011;3567;52.444;13.556;2023-04-25T05:17:00;12.13;;;4.45;;
7051;SDS011;3567;52.444;13.556;2023-04-25T05:19:25;6.03;;;3.33;;
7051;SDS011;3567;52.444;13.556;2023-04-25T05:21:51;6.53;;;3.15;;
7051;SDS011;3567;52.444;13.556;2023-04-25T05:24:17;9.18;;;3.95;;
7051;SDS011;3567;52.444;13.556;2023-04-25T05:26:42;7.57;;;3.75;;
7051;SDS011;3567;52.444;13.556;2023-04-25T05:29:07;6.82;;;4.07;;
7051;SDS011;3567;52.444;13.556;2023-04-25T05:31:34;4.97;;;3.08;;
7051;SDS011;3567;52.444;13.556;2023-04-25T05:34:00;16.48;;;4.20;;
7051;SDS011;3567;52.444;13.556;2023-04-25T05:36:26;8.02;;;4.38;;
7051;SDS011;3567;52.444;13.556;2023-04-25T05:38:52;9.68;;;4.50;;
7051;SDS011;3567;52.444;13.556;2023-04-25T05:41:17;10.18;;;3.92;;
7051;SDS011;3567;52.444;13.556;2023-04-25T05:43:43;7.28;;;4.07;;
7051;SDS011;3567;52.444;13.556;2023-04-25T05:46:12;6.63;;;3.97;;
7051;SDS011;3567;52.444;13.556;2023-04-25T05:48:37;5.53;;;3.33;;
7051;SDS011;3567;52.444;13.556;2023-04-25T05:51:03;7.45;;;2.90;;
7051;SDS011;3567;52.444;13.556;2023-04-25T05:53:28;9.80;;;3.45;;
7051;SDS011;3567;52.444;13.556;2023-04-25T05:55:54;10.35;;;3.20;;
7051;SDS011;3567;52.444;13.556;2023-04-25T05:58:19;6.00;;;3.45;;
7051;SDS011;3567;52.444;13.556;2023-04-25T06:00:45;9.25;;;3.42;;
7051;SDS011;3567;52.444;13.556;2023-04-25T06:03:11;8.10;;;3.63;;
7051;SDS011;3567;52.444;13.556;2023-04-25T06:05:38;7.20;;;3.35;;
7051;SDS011;3567;52.444;13.556;2023-04-25T06:08:03;7.75;;;4.13;;
7051;SDS011;3567;52.444;13.556;2023-04-25T06:10:29;10.80;;;3.88;;
7051;SDS011;3567;52.444;13.556;2023-04-25T06:12:55;7.18;;;3.35;;
7051;SDS011;3567;52.444;13.556;2023-04-25T06:15:20;9.02;;;3.67;;
7051;SDS011;3567;52.444;13.556;2023-04-25T06:17:45;5.15;;;3.53;;
7051;SDS011;3567;52.444;13.556;2023-04-25T06:20:11;8.02;;;3.80;;
7051;SDS011;3567;52.444;13.556;2023-04-25T06:22:36;5.20;;;3.78;;
7051;SDS011;3567;52.444;13.556;2023-04-25T06:25:02;8.82;;;3.83;;
7051;SDS011;3567;52.444;13.556;2023-04-25T06:27:29;8.45;;;3.90;;
7051;SDS011;3567;52.444;13.556;2023-04-25T06:29:54;9.52;;;3.63;;
7051;SDS011;3567;52.444;13.556;2023-04-25T06:32:20;8.77;;;4.10;;
7051;SDS011;3567;52.444;13.556;2023-04-25T06:34:45;7.10;;;3.95;;
7051;SDS011;3567;52.444;13.556;2023-04-25T06:37:10;9.02;;;4.20;;
7051;SDS011;3567;52.444;13.556;2023-04-25T06:39:36;6.38;;;4.13;;
7051;SDS011;3567;52.444;13.556;2023-04-25T06:42:02;8.38;;;4.50;;
7051;SDS011;3567;52.444;13.556;2023-04-25T06:44:27;7.95;;;4.97;;
7051;SDS011;3567;52.444;13.556;2023-04-25T06:46:54;8.98;;;4.50;;
7051;SDS011;3567;52.444;13.556;2023-04-25T06:49:19;14.30;;;4.95;;
7051;SDS011;3567;52.444;13.556;2023-04-25T06:51:45;9.60;;;3.90;;
7051;SDS011;3567;52.444;13.556;2023-04-25T06:54:10;15.48;;;4.65;;
7051;SDS011;3567;52.444;13.556;2023-04-25T06:56:36;7.47;;;4.25;;
7051;SDS011;3567;52.444;13.556;2023-04-25T06:59:01;6.15;;;3.83;;
7051;SDS011;3567;52.444;13.556;2023-04-25T07:01:26;9.88;;;3.70;;
7051;SDS011;3567;52.444;13.556;2023-04-25T07:03:52;10.13;;;3.88;;
7051;SDS011;3567;52.444;13.556;2023-04-25T07:06:17;11.48;;;4.22;;
7051;SDS011;3567;52.444;13.556;2023-04-25T07:08:42;7.05;;;4.75;;
7051;SDS011;3567;52.444;13.556;2023-04-25T07:11:08;9.18;;;3.58;;
7051;SDS011;3567;52.444;13.556;2023-04-25T07:13:33;7.38;;;3.63;;
7051;SDS011;3567;52.444;13.556;2023-04-25T07:15:59;9.25;;;4.18;;
7051;SDS011;3567;52.444;13.556;2023-04-25T07:18:25;5.90;;;3.47;;
7051;SDS011;3567;52.444;13.556;2023-04-25T07:20:50;5.78;;;3.30;;
7051;SDS011;3567;52.444;13.556;2023-04-25T07:23:15;4.45;;;3.35;;
7051;SDS011;3567;52.444;13.556;2023-04-25T07:25:41;8.75;;;3.80;;
7051;SDS011;3567;52.444;13.556;2023-04-25T07:28:06;6.00;;;3.65;;
7051;SDS011;3567;52.444;13.556;2023-04-25T07:30:31;6.45;;;3.75;;
7051;SDS011;3567;52.444;13.556;2023-04-25T07:32:57;5.28;;;3.53;;
7051;SDS011;3567;52.444;13.556;2023-04-25T07:35:22;7.38;;;3.17;;
7051;SDS011;3567;52.444;13.556;2023-04-25T07:37:47;3.58;;;2.50;;
7051;SDS011;3567;52.444;13.556;2023-04-25T07:40:13;3.47;;;2.30;;
7051;SDS011;3567;52.444;13.556;2023-04-25T07:42:40;4.25;;;2.15;;
7051;SDS011;3567;52.444;13.556;2023-04-25T07:45:06;5.65;;;2.40;;
7051;SDS011;3567;52.444;13.556;2023-04-25T07:47:32;5.22;;;2.53;;
7051;SDS011;3567;52.444;13.556;2023-04-25T07:49:57;9.68;;;2.92;;
7051;SDS011;3567;52.444;13.556;2023-04-25T07:52:22;7.50;;;2.90;;
7051;SDS011;3567;52.444;13.556;2023-04-25T07:54:48;7.45;;;2.97;;
7051;SDS011;3567;52.444;13.556;2023-04-25T07:57:13;5.57;;;3.03;;
7051;SDS011;3567;52.444;13.556;2023-04-25T07:59:39;9.13;;;3.65;;
7051;SDS011;3567;52.444;13.556;2023-04-25T08:02:05;9.32;;;3.00;;
7051;SDS011;3567;52.444;13.556;2023-04-25T08:04:30;11.98;;;3.00;;
7051;SDS011;3567;52.444;13.556;2023-04-25T08:06:55;11.77;;;3.85;;
7051;SDS011;3567;52.444;13.556;2023-04-25T08:09:21;8.88;;;3.65;;
7051;SDS011;3567;52.444;13.556;2023-04-25T08:11:47;8.07;;;2.92;;
7051;SDS011;3567;52.444;13.556;2023-04-25T08:14:13;6.07;;;3.22;;
7051;SDS011;3567;52.444;13.556;2023-04-25T08:16:38;8.98;;;4.03;;
7051;SDS011;3567;52.444;13.556;2023-04-25T08:19:04;13.75;;;4.30;;
7051;SDS011;3567;52.444;13.556;2023-04-25T08:21:30;12.13;;;3.78;;
7051;SDS011;3567;52.444;13.556;2023-04-25T08:23:56;12.50;;;4.05;;
7051;SDS011;3567;52.444;13.556;2023-04-25T08:26:23;12.25;;;4.50;;
7051;SDS011;3567;52.444;13.556;2023-04-25T08:28:51;13.98;;;3.80;;
7051;SDS011;3567;52.444;13.556;2023-04-25T08:31:16;21.20;;;3.75;;
7051;SDS011;3567;52.444;13.556;2023-04-25T08:33:42;21.52;;;4.38;;
7051;SDS011;3567;52.444;13.556;2023-04-25T08:36:09;16.83;;;3.90;;
7051;SDS011;3567;52.444;13.556;2023-04-25T08:38:34;13.48;;;3.55;;
7051;SDS011;3567;52.444;13.556;2023-04-25T08:41:01;9.30;;;3.60;;
7051;SDS011;3567;52.444;13.556;2023-04-25T08:43:27;17.02;;;3.20;;
7051;SDS011;3567;52.444;13.556;2023-04-25T08:45:54;16.10;;;4.50;;
7051;SDS011;3567;52.444;13.556;2023-04-25T08:48:25;12.65;;;2.80;;
7051;SDS011;3567;52.444;13.556;2023-04-25T08:50:53;14.90;;;3.80;;
7051;SDS011;3567;52.444;13.556;2023-04-25T08:53:21;16.35;;;3.30;;
7051;SDS011;3567;52.444;13.556;2023-04-25T08:55:50;15.32;;;3.45;;
7051;SDS011;3567;52.444;13.556;2023-04-25T08:58:16;19.40;;;3.75;;
7051;SDS011;3567;52.444;13.556;2023-04-25T09:00:43;14.25;;;3.03;;
7051;SDS011;3567;52.444;13.556;2023-04-25T09:03:08;9.40;;;2.45;;
7051;SDS011;3567;52.444;13.556;2023-04-25T09:05:35;10.38;;;2.50;;
7051;SDS011;3567;52.444;13.556;2023-04-25T09:08:01;10.52;;;2.15;;
7051;SDS011;3567;52.444;13.556;2023-04-25T09:10:27;12.95;;;2.65;;
7051;SDS011;3567;52.444;13.556;2023-04-25T09:15:52;12.50;;;2.72;;
7051;SDS011;3567;52.444;13.556;2023-04-25T09:18:37;8.82;;;2.13;;
7051;SDS011;3567;52.444;13.556;2023-04-25T09:23:47;12.40;;;2.83;;
7051;SDS011;3567;52.444;13.556;2023-04-25T09:26:16;11.48;;;3.55;;
7051;SDS011;3567;52.444;13.556;2023-04-25T09:28:43;12.07;;;2.55;;
7051;SDS011;3567;52.444;13.556;2023-04-25T09:31:10;17.50;;;2.38;;
7051;SDS011;3567;52.444;13.556;2023-04-25T09:33:36;12.40;;;2.95;;
7051;SDS011;3567;52.444;13.556;2023-04-25T09:36:03;11.57;;;2.20;;
7051;SDS011;3567;52.444;13.556;2023-04-25T09:38:43;11.48;;;2.17;;
7051;SDS011;3567;52.444;13.556;2023-04-25T09:41:09;10.73;;;2.05;;
7051;SDS011;3567;52.444;13.556;2023-04-25T09:43:35;10.25;;;2.58;;
7051;SDS011;3567;52.444;13.556;2023-04-25T09:46:02;15.00;;;2.35;;
7051;SDS011;3567;52.444;13.556;2023-04-25T09:48:28;7.93;;;2.47;;
7051;SDS011;3567;52.444;13.556;2023-04-25T09:51:04;10.75;;;2.40;;
7051;SDS011;3567;52.444;13.556;2023-04-25T09:53:33;17.00;;;2.80;;
7051;SDS011;3567;52.444;13.556;2023-04-25T09:56:00;10.82;;;2.35;;
7051;SDS011;3567;52.444;13.556;2023-04-25T09:58:30;12.80;;;2.60;;
7051;SDS011;3567;52.444;13.556;2023-04-25T10:00:57;8.93;;;2.67;;
7051;SDS011;3567;52.444;13.556;2023-04-25T10:03:25;15.98;;;3.05;;
7051;SDS011;3567;52.444;13.556;2023-04-25T10:05:51;9.45;;;2.55;;
7051;SDS011;3567;52.444;13.556;2023-04-25T10:08:18;12.18;;;2.65;;
7051;SDS011;3567;52.444;13.556;2023-04-25T10:10:44;8.60;;;2.45;;
7051;SDS011;3567;52.444;13.556;2023-04-25T10:13:13;9.02;;;1.88;;
7051;SDS011;3567;52.444;13.556;2023-04-25T10:15:39;8.30;;;2.30;;
7051;SDS011;3567;52.444;13.556;2023-04-25T10:18:06;9.80;;;2.05;;
7051;SDS011;3567;52.444;13.556;2023-04-25T10:20:32;6.60;;;2.25;;
7051;SDS011;3567;52.444;13.556;2023-04-25T10:22:58;8.05;;;2.08;;
7051;SDS011;3567;52.444;13.556;2023-04-25T10:25:32;10.40;;;2.30;;
7051;SDS011;3567;52.444;13.556;2023-04-25T10:27:59;13.68;;;2.45;;
7051;SDS011;3567;52.444;13.556;2023-04-25T10:30:24;10.40;;;2.10;;
7051;SDS011;3567;52.444;13.556;2023-04-25T10:32:50;12.68;;;2.65;;
7051;SDS011;3567;52.444;13.556;2023-04-25T10:35:24;11.52;;;2.63;;
7051;SDS011;3567;52.444;13.556;2023-04-25T10:37:56;8.98;;;1.90;;
7051;SDS011;3567;52.444;13.556;2023-04-25T10:40:22;10.25;;;1.83;;
7051;SDS011;3567;52.444;13.556;2023-04-25T10:42:48;6.00;;;1.98;;
7051;SDS011;3567;52.444;13.556;2023-04-25T10:45:13;8.20;;;2.03;;
7051;SDS011;3567;52.444;13.556;2023-04-25T10:47:43;15.18;;;2.20;;
7051;SDS011;3567;52.444;13.556;2023-04-25T10:50:09;10.77;;;2.15;;
7051;SDS011;3567;52.444;13.556;2023-04-25T10:52:36;8.32;;;2.00;;
7051;SDS011;3567;52.444;13.556;2023-04-25T10:55:04;6.97;;;2.05;;
7051;SDS011;3567;52.444;13.556;2023-04-25T10:57:30;9.40;;;2.30;;
7051;SDS011;3567;52.444;13.556;2023-04-25T11:00:00;8.80;;;1.63;;
7051;SDS011;3567;52.444;13.556;2023-04-25T11:02:30;7.20;;;1.83;;
7051;SDS011;3567;52.444;13.556;2023-04-25T11:04:56;10.35;;;2.03;;
7051;SDS011;3567;52.444;13.556;2023-04-25T11:07:34;9.80;;;2.17;;
7051;SDS011;3567;52.444;13.556;2023-04-25T11:10:12;9.70;;;2.15;;
7051;SDS011;3567;52.444;13.556;2023-04-25T11:12:38;15.85;;;2.40;;
7051;SDS011;3567;52.444;13.556;2023-04-25T11:15:04;7.13;;;1.75;;
7051;SDS011;3567;52.444;13.556;2023-04-25T11:17:32;10.07;;;1.80;;
7051;SDS011;3567;52.444;13.556;2023-04-25T11:19:58;12.88;;;1.85;;
7051;SDS011;3567;52.444;13.556;2023-04-25T11:22:24;6.75;;;1.73;;
7051;SDS011;3567;52.444;13.556;2023-04-25T11:24:49;7.70;;;2.03;;
7051;SDS011;3567;52.444;13.556;2023-04-25T11:27:15;13.18;;;2.10;;
7051;SDS011;3567;52.444;13.556;2023-04-25T11:29:41;7.28;;;1.67;;
7051;SDS011;3567;52.444;13.556;2023-04-25T11:32:06;7.22;;;1.45;;
7051;SDS011;3567;52.444;13.556;2023-04-25T11:34:33;6.47;;;1.98;;
7051;SDS011;3567;52.444;13.556;2023-04-25T11:36:59;7.40;;;1.50;;
7051;SDS011;3567;52.444;13.556;2023-04-25T11:39:25;9.63;;;1.52;;
7051;SDS011;3567;52.444;13.556;2023-04-25T11:41:52;6.53;;;1.67;;
7051;SDS011;3567;52.444;13.556;2023-04-25T11:44:18;10.32;;;1.77;;
7051;SDS011;3567;52.444;13.556;2023-04-25T11:46:45;8.23;;;2.13;;
7051;SDS011;3567;52.444;13.556;2023-04-25T11:49:11;5.25;;;1.40;;
7051;SDS011;3567;52.444;13.556;2023-04-25T11:51:40;7.53;;;2.10;;
7051;SDS011;3567;52.444;13.556;2023-04-25T11:54:06;8.93;;;1.80;;
7051;SDS011;3567;52.444;13.556;2023-04-25T11:56:32;7.57;;;1.30;;
7051;SDS011;3567;52.444;13.556;2023-04-25T11:58:58;8.65;;;1.42;;
7051;SDS011;3567;52.444;13.556;2023-04-25T12:01:37;7.78;;;1.50;;
7051;SDS011;3567;52.444;13.556;2023-04-25T12:04:13;7.25;;;1.17;;
7051;SDS011;3567;52.444;13.556;2023-04-25T12:06:42;6.05;;;1.52;;
7051;SDS011;3567;52.444;13.556;2023-04-25T12:09:09;8.07;;;1.05;;
7051;SDS011;3567;52.444;13.556;2023-04-25T12:11:42;5.55;;;1.50;;
7051;SDS011;3567;52.444;13.556;2023-04-25T12:14:09;7.68;;;1.60;;
7051;SDS011;3567;52.444;13.556;2023-04-25T12:16:45;4.70;;;1.25;;
7051;SDS011;3567;52.444;13.556;2023-04-25T12:19:15;7.13;;;1.88;;
7051;SDS011;3567;52.444;13.556;2023-04-25T12:21:42;7.35;;;1.20;;
7051;SDS011;3567;52.444;13.556;2023-04-25T12:24:11;5.72;;;1.58;;
7051;SDS011;3567;52.444;13.556;2023-04-25T12:26:47;5.80;;;1.45;;
7051;SDS011;3567;52.444;13.556;2023-04-25T12:29:26;6.30;;;1.20;;
7051;SDS011;3567;52.444;13.556;2023-04-25T12:31:52;5.75;;;1.50;;
7051;SDS011;3567;52.444;13.556;2023-04-25T12:34:19;10.15;;;1.60;;
7051;SDS011;3567;52.444;13.556;2023-04-25T12:36:46;7.97;;;1.58;;
7051;SDS011;3567;52.444;13.556;2023-04-25T12:39:18;11.20;;;2.17;;
7051;SDS011;3567;52.444;13.556;2023-04-25T12:41:46;8.98;;;2.28;;
7051;SDS011;3567;52.444;13.556;2023-04-25T12:44:12;5.07;;;1.52;;
7051;SDS011;3567;52.444;13.556;2023-04-25T12:46:38;5.82;;;1.45;;
7051;SDS011;3567;52.444;13.556;2023-04-25T12:49:05;10.40;;;1.65;;
7051;SDS011;3567;52.444;13.556;2023-04-25T12:51:32;8.45;;;1.58;;
7051;SDS011;3567;52.444;13.556;2023-04-25T12:53:59;5.82;;;1.38;;
7051;SDS011;3567;52.444;13.556;2023-04-25T12:56:25;3.88;;;1.13;;
7051;SDS011;3567;52.444;13.556;2023-04-25T12:58:52;7.47;;;1.27;;
7051;SDS011;3567;52.444;13.556;2023-04-25T13:01:17;6.22;;;1.70;;
7051;SDS011;3567;52.444;13.556;2023-04-25T13:03:44;4.03;;;1.35;;
7051;SDS011;3567;52.444;13.556;2023-04-25T13:06:09;8.30;;;1.40;;
7051;SDS011;3567;52.444;13.556;2023-04-25T13:08:35;6.47;;;1.73;;
7051;SDS011;3567;52.444;13.556;2023-04-25T13:11:02;7.53;;;1.30;;
7051;SDS011;3567;52.444;13.556;2023-04-25T13:13:28;4.70;;;1.20;;
7051;SDS011;3567;52.444;13.556;2023-04-25T13:15:54;6.18;;;2.00;;
7051;SDS011;3567;52.444;13.556;2023-04-25T13:18:19;4.22;;;1.63;;
7051;SDS011;3567;52.444;13.556;2023-04-25T13:20:45;7.93;;;1.67;;
7051;SDS011;3567;52.444;13.556;2023-04-25T13:23:11;8.95;;;1.77;;
7051;SDS011;3567;52.444;13.556;2023-04-25T13:25:36;6.88;;;1.80;;
7051;SDS011;3567;52.444;13.556;2023-04-25T13:28:02;7.45;;;1.30;;
7051;SDS011;3567;52.444;13.556;2023-04-25T13:30:27;4.13;;;1.13;;
7051;SDS011;3567;52.444;13.556;2023-04-25T13:32:53;4.32;;;1.15;;
7051;SDS011;3567;52.444;13.556;2023-04-25T13:35:21;5.13;;;0.98;;
7051;SDS011;3567;52.444;13.556;2023-04-25T13:37:46;5.78;;;1.30;;
7051;SDS011;3567;52.444;13.556;2023-04-25T13:40:11;4.35;;;1.25;;
7051;SDS011;3567;52.444;13.556;2023-04-25T13:42:37;3.50;;;1.02;;
7051;SDS011;3567;52.444;13.556;2023-04-25T13:45:03;3.13;;;1.10;;
7051;SDS011;3567;52.444;13.556;2023-04-25T13:47:29;5.18;;;0.93;;
7051;SDS011;3567;52.444;13.556;2023-04-25T13:49:55;4.53;;;0.80;;
7051;SDS011;3567;52.444;13.556;2023-04-25T13:52:20;4.95;;;0.98;;
7051;SDS011;3567;52.444;13.556;2023-04-25T13:54:46;4.53;;;1.15;;
7051;SDS011;3567;52.444;13.556;2023-04-25T13:57:11;10.68;;;1.35;;
7051;SDS011;3567;52.444;13.556;2023-04-25T13:59:37;5.47;;;0.98;;
7051;SDS011;3567;52.444;13.556;2023-04-25T14:02:03;6.78;;;1.67;;
7051;SDS011;3567;52.444;13.556;2023-04-25T14:04:28;6.63;;;1.27;;
7051;SDS011;3567;52.444;13.556;2023-04-25T14:06:54;3.72;;;1.20;;
7051;SDS011;3567;52.444;13.556;2023-04-25T14:09:20;1.92;;;1.13;;
7051;SDS011;3567;52.444;13.556;2023-04-25T14:11:50;5.15;;;1.42;;
7051;SDS011;3567;52.444;13.556;2023-04-25T14:14:19;3.90;;;1.02;;
7051;SDS011;3567;52.444;13.556;2023-04-25T14:16:46;6.78;;;1.17;;
7051;SDS011;3567;52.444;13.556;2023-04-25T14:19:13;5.03;;;1.10;;
7051;SDS011;3567;52.444;13.556;2023-04-25T14:21:42;7.03;;;1.15;;
7051;SDS011;3567;52.444;13.556;2023-04-25T14:24:10;2.08;;;1.00;;
7051;SDS011;3567;52.444;13.556;2023-04-25T14:26:36;4.63;;;1.30;;
7051;SDS011;3567;52.444;13.556;2023-04-25T14:29:02;7.95;;;1.40;;
7051;SDS011;3567;52.444;13.556;2023-04-25T14:31:28;11.23;;;1.85;;
7051;SDS011;3567;52.444;13.556;2023-04-25T14:33:54;6.85;;;1.30;;
7051;SDS011;3567;52.444;13.556;2023-04-25T14:36:20;3.95;;;1.30;;
7051;SDS011;3567;52.444;13.556;2023-04-25T14:38:46;3.53;;;1.00;;
7051;SDS011;3567;52.444;13.556;2023-04-25T14:41:11;4.63;;;1.10;;
7051;SDS011;3567;52.444;13.556;2023-04-25T14:43:37;6.53;;;1.30;;
7051;SDS011;3567;52.444;13.556;2023-04-25T14:46:02;5.78;;;1.15;;
7051;SDS011;3567;52.444;13.556;2023-04-25T14:48:28;5.03;;;0.77;;
7051;SDS011;3567;52.444;13.556;2023-04-25T14:50:54;3.80;;;0.90;;
7051;SDS011;3567;52.444;13.556;2023-04-25T14:53:21;3.05;;;1.13;;
7051;SDS011;3567;52.444;13.556;2023-04-25T14:55:47;4.68;;;1.08;;
7051;SDS011;3567;52.444;13.556;2023-04-25T14:58:13;2.92;;;0.90;;